sensor_id;sensor_type;location;lat;lon;timestamp;pressure;altitude;pressure_sealevel;temperature;humidity
77725;BME280;66892;53.236;6.550;2023-10-09T00:00:28;102007.88;;;13.47;100.00
77725;BME280;66892;53.236;6.550;2023-10-09T00:03:06;102011.41;;;13.45;100.00
77725;BME280;66892;53.236;6.550;2023-10-09T00:05:32;101994.56;;;13.44;100.00
77725;BME280;66892;53.236;6.550;2023-10-09T00:08:11;101991.94;;;13.50;100.00
77725;BME280;66892;53.236;6.550;2023-10-09T00:10:42;101996.38;;;13.53;100.00
77725;BME280;66892;53.236;6.550;2023-10-09T00:13:24;101999.94;;;13.58;100.00
77725;BME280;66892;53.236;6.550;2023-10-09T00:15:58;101988.41;;;13.62;100.00
77725;BME280;66892;53.236;6.550;2023-10-09T00:18:34;101976.94;;;13.64;100.00
77725;BME280;66892;53.236;6.550;2023-10-09T00:21:00;101974.28;;;13.64;100.00
77725;BME280;66892;53.236;6.550;2023-10-09T00:23:27;101968.03;;;13.65;100.00
77725;BME280;66892;53.236;6.550;2023-10-09T00:25:53;101968.06;;;13.67;100.00
77725;BME280;66892;53.236;6.550;2023-10-09T00:28:36;101961.84;;;13.66;100.00
77725;BME280;66892;53.236;6.550;2023-10-09T00:31:04;101963.63;;;13.67;100.00
77725;BME280;66892;53.236;6.550;2023-10-09T00:33:33;101961.84;;;13.69;100.00
77725;BME280;66892;53.236;6.550;2023-10-09T00:36:02;101964.50;;;13.69;100.00
77725;BME280;66892;53.236;6.550;2023-10-09T00:38:35;101958.31;;;13.72;100.00
77725;BME280;66892;53.236;6.550;2023-10-09T00:41:01;101956.53;;;13.72;100.00
77725;BME280;66892;53.236;6.550;2023-10-09T00:43:34;101949.44;;;13.74;100.00
77725;BME280;66892;53.236;6.550;2023-10-09T00:46:02;101943.28;;;13.77;100.00
77725;BME280;66892;53.236;6.550;2023-10-09T00:48:30;101930.84;;;13.81;100.00
77725;BME280;66892;53.236;6.550;2023-10-09T00:51:00;101932.63;;;13.82;100.00
77725;BME280;66892;53.236;6.550;2023-10-09T00:53:27;101931.75;;;13.83;100.00
77725;BME280;66892;53.236;6.550;2023-10-09T00:55:57;101932.63;;;13.85;100.00
77725;BME280;66892;53.236;6.550;2023-10-09T00:58:29;101934.38;;;13.87;100.00
77725;BME280;66892;53.236;6.550;2023-10-09T01:00:57;101925.53;;;13.88;100.00
77725;BME280;66892;53.236;6.550;2023-10-09T01:03:25;101925.53;;;13.88;100.00
77725;BME280;66892;53.236;6.550;2023-10-09T01:05:54;101930.88;;;13.90;100.00
77725;BME280;66892;53.236;6.550;2023-10-09T01:08:24;101930.84;;;13.91;100.00
77725;BME280;66892;53.236;6.550;2023-10-09T01:10:54;101922.00;;;13.89;100.00
77725;BME280;66892;53.236;6.550;2023-10-09T01:13:24;101917.56;;;13.88;100.00
77725;BME280;66892;53.236;6.550;2023-10-09T01:16:06;101912.25;;;13.87;100.00
77725;BME280;66892;53.236;6.550;2023-10-09T01:18:32;101903.41;;;13.86;100.00
77725;BME280;66892;53.236;6.550;2023-10-09T01:21:04;101891.84;;;13.87;100.00
77725;BME280;66892;53.236;6.550;2023-10-09T01:23:32;101901.63;;;13.84;100.00
77725;BME280;66892;53.236;6.550;2023-10-09T01:25:58;101887.44;;;13.82;100.00
77725;BME280;66892;53.236;6.550;2023-10-09T01:28:24;101881.22;;;13.81;100.00
77725;BME280;66892;53.236;6.550;2023-10-09T01:30:52;101867.94;;;13.80;100.00
77725;BME280;66892;53.236;6.550;2023-10-09T01:33:18;101864.38;;;13.78;100.00
77725;BME280;66892;53.236;6.550;2023-10-09T01:35:52;101867.06;;;13.73;100.00
77725;BME280;66892;53.236;6.550;2023-10-09T01:38:24;101859.97;;;13.67;100.00
77725;BME280;66892;53.236;6.550;2023-10-09T01:41:11;101871.47;;;13.65;100.00
77725;BME280;66892;53.236;6.550;2023-10-09T01:43:41;101851.09;;;13.64;100.00
77725;BME280;66892;53.236;6.550;2023-10-09T01:46:11;101866.16;;;13.63;100.00
77725;BME280;66892;53.236;6.550;2023-10-09T01:48:37;101863.50;;;13.63;100.00
77725;BME280;66892;53.236;6.550;2023-10-09T01:51:12;101856.44;;;13.61;100.00
77725;BME280;66892;53.236;6.550;2023-10-09T01:53:38;101855.53;;;13.62;100.00
77725;BME280;66892;53.236;6.550;2023-10-09T01:56:12;101842.22;;;13.59;100.00
77725;BME280;66892;53.236;6.550;2023-10-09T01:58:42;101832.50;;;13.59;100.00
77725;BME280;66892;53.236;6.550;2023-10-09T02:01:13;101836.03;;;13.58;100.00
77725;BME280;66892;53.236;6.550;2023-10-09T02:03:40;101840.47;;;13.58;100.00
77725;BME280;66892;53.236;6.550;2023-10-09T02:06:09;101839.59;;;13.57;100.00
77725;BME280;66892;53.236;6.550;2023-10-09T02:08:52;101832.50;;;13.56;100.00
77725;BME280;66892;53.236;6.550;2023-10-09T02:11:20;101827.19;;;13.56;100.00
77725;BME280;66892;53.236;6.550;2023-10-09T02:13:50;101825.41;;;13.58;100.00
77725;BME280;66892;53.236;6.550;2023-10-09T02:16:27;101831.63;;;13.57;100.00
77725;BME280;66892;53.236;6.550;2023-10-09T02:18:55;101827.19;;;13.56;100.00
77725;BME280;66892;53.236;6.550;2023-10-09T02:21:22;101816.53;;;13.56;100.00
77725;BME280;66892;53.236;6.550;2023-10-09T02:24:06;101817.41;;;13.55;100.00
77725;BME280;66892;53.236;6.550;2023-10-09T02:26:36;101813.00;;;13.54;100.00
77725;BME280;66892;53.236;6.550;2023-10-09T02:29:05;101805.03;;;13.51;100.00
77725;BME280;66892;53.236;6.550;2023-10-09T02:31:41;101800.59;;;13.52;100.00
77725;BME280;66892;53.236;6.550;2023-10-09T02:34:10;101799.72;;;13.50;100.00
77725;BME280;66892;53.236;6.550;2023-10-09T02:36:36;101796.16;;;13.49;100.00
77725;BME280;66892;53.236;6.550;2023-10-09T02:39:15;101784.66;;;13.46;100.00
77725;BME280;66892;53.236;6.550;2023-10-09T02:41:53;101782.00;;;13.43;100.00
77725;BME280;66892;53.236;6.550;2023-10-09T02:44:27;101774.03;;;13.41;100.00
77725;BME280;66892;53.236;6.550;2023-10-09T02:47:05;101766.97;;;13.42;100.00
77725;BME280;66892;53.236;6.550;2023-10-09T02:49:31;101760.75;;;13.44;100.00
77725;BME280;66892;53.236;6.550;2023-10-09T02:51:57;101757.22;;;13.44;100.00
77725;BME280;66892;53.236;6.550;2023-10-09T02:54:23;101740.41;;;13.42;100.00
77725;BME280;66892;53.236;6.550;2023-10-09T02:56:52;101734.19;;;13.44;100.00
77725;BME280;66892;53.236;6.550;2023-10-09T02:59:34;101731.50;;;13.43;100.00
77725;BME280;66892;53.236;6.550;2023-10-09T03:02:02;101741.28;;;13.44;100.00
77725;BME280;66892;53.236;6.550;2023-10-09T03:04:29;101741.25;;;13.47;100.00
77725;BME280;66892;53.236;6.550;2023-10-09T03:06:57;101740.38;;;13.46;100.00
77725;BME280;66892;53.236;6.550;2023-10-09T03:09:24;101732.41;;;13.46;100.00
77725;BME280;66892;53.236;6.550;2023-10-09T03:11:56;101735.97;;;13.48;100.00
77725;BME280;66892;53.236;6.550;2023-10-09T03:14:28;101736.84;;;13.50;100.00
77725;BME280;66892;53.236;6.550;2023-10-09T03:16:55;101742.13;;;13.52;100.00
77725;BME280;66892;53.236;6.550;2023-10-09T03:19:24;101732.38;;;13.52;100.00
77725;BME280;66892;53.236;6.550;2023-10-09T03:21:51;101733.28;;;13.57;100.00
77725;BME280;66892;53.236;6.550;2023-10-09T03:24:17;101751.00;;;13.60;100.00
77725;BME280;66892;53.236;6.550;2023-10-09T03:26:43;101750.13;;;13.64;100.00
77725;BME280;66892;53.236;6.550;2023-10-09T03:29:14;101750.97;;;13.69;100.00
77725;BME280;66892;53.236;6.550;2023-10-09T03:31:40;101751.88;;;13.74;100.00
77725;BME280;66892;53.236;6.550;2023-10-09T03:34:08;101745.66;;;13.75;100.00
77725;BME280;66892;53.236;6.550;2023-10-09T03:36:36;101749.19;;;13.80;100.00
77725;BME280;66892;53.236;6.550;2023-10-09T03:39:05;101745.63;;;13.87;100.00
77725;BME280;66892;53.236;6.550;2023-10-09T03:41:55;101743.81;;;13.98;100.00
77725;BME280;66892;53.236;6.550;2023-10-09T03:44:25;101744.69;;;14.05;100.00
77725;BME280;66892;53.236;6.550;2023-10-09T03:46:54;101745.56;;;14.11;100.00
77725;BME280;66892;53.236;6.550;2023-10-09T03:49:21;101744.66;;;14.15;100.00
77725;BME280;66892;53.236;6.550;2023-10-09T03:51:52;101732.22;;;14.20;100.00
77725;BME280;66892;53.236;6.550;2023-10-09T03:54:19;101749.94;;;14.24;100.00
77725;BME280;66892;53.236;6.550;2023-10-09T03:56:48;101743.72;;;14.27;100.00
77725;BME280;66892;53.236;6.550;2023-10-09T03:59:21;101747.28;;;14.35;100.00
77725;BME280;66892;53.236;6.550;2023-10-09T04:01:48;101743.72;;;14.36;100.00
77725;BME280;66892;53.236;6.550;2023-10-09T04:04:16;101748.16;;;14.37;100.00
77725;BME280;66892;53.236;6.550;2023-10-09T04:06:43;101757.00;;;14.41;100.00
77725;BME280;66892;53.236;6.550;2023-10-09T04:09:10;101759.66;;;14.41;100.00
77725;BME280;66892;53.236;6.550;2023-10-09T04:11:45;101750.78;;;14.42;100.00
77725;BME280;66892;53.236;6.550;2023-10-09T04:14:12;101759.66;;;14.42;100.00
77725;BME280;66892;53.236;6.550;2023-10-09T04:16:50;101765.84;;;14.46;100.00
77725;BME280;66892;53.236;6.550;2023-10-09T04:19:51;101764.06;;;14.54;100.00
77725;BME280;66892;53.236;6.550;2023-10-09T04:22:36;101759.63;;;14.54;100.00
77725;BME280;66892;53.236;6.550;2023-10-09T04:25:06;101754.25;;;14.56;100.00
77725;BME280;66892;53.236;6.550;2023-10-09T04:27:41;101740.06;;;14.55;100.00
77725;BME280;66892;53.236;6.550;2023-10-09T04:30:07;101741.84;;;14.56;100.00
77725;BME280;66892;53.236;6.550;2023-10-09T04:32:39;101725.84;;;14.61;100.00
77725;BME280;66892;53.236;6.550;2023-10-09T04:35:06;101735.59;;;14.62;100.00
77725;BME280;66892;53.236;6.550;2023-10-09T04:37:52;101733.81;;;14.62;100.00
77725;BME280;66892;53.236;6.550;2023-10-09T04:40:26;101740.00;;;14.64;100.00
77725;BME280;66892;53.236;6.550;2023-10-09T04:43:14;101735.59;;;14.62;100.00
77725;BME280;66892;53.236;6.550;2023-10-09T04:45:46;101728.50;;;14.62;100.00
77725;BME280;66892;53.236;6.550;2023-10-09T04:48:32;101722.28;;;14.63;100.00
77725;BME280;66892;53.236;6.550;2023-10-09T04:50:58;101729.38;;;14.64;100.00
77725;BME280;66892;53.236;6.550;2023-10-09T04:53:43;101739.13;;;14.67;100.00
77725;BME280;66892;53.236;6.550;2023-10-09T04:56:35;101725.81;;;14.67;100.00
77725;BME280;66892;53.236;6.550;2023-10-09T04:59:20;101720.47;;;14.70;100.00
77725;BME280;66892;53.236;6.550;2023-10-09T05:01:50;101726.66;;;14.73;100.00
77725;BME280;66892;53.236;6.550;2023-10-09T05:04:24;101700.91;;;14.74;100.00
77725;BME280;66892;53.236;6.550;2023-10-09T05:07:02;101712.47;;;14.73;100.00
77725;BME280;66892;53.236;6.550;2023-10-09T05:09:49;101720.44;;;14.74;100.00
77725;BME280;66892;53.236;6.550;2023-10-09T05:12:21;101731.09;;;14.74;100.00
77725;BME280;66892;53.236;6.550;2023-10-09T05:14:52;101731.09;;;14.76;100.00
77725;BME280;66892;53.236;6.550;2023-10-09T05:17:47;101732.88;;;14.75;100.00
77725;BME280;66892;53.236;6.550;2023-10-09T05:20:23;101737.28;;;14.78;100.00
77725;BME280;66892;53.236;6.550;2023-10-09T05:22:52;101740.81;;;14.78;100.00
77725;BME280;66892;53.236;6.550;2023-10-09T05:25:25;101747.94;;;14.80;100.00
77725;BME280;66892;53.236;6.550;2023-10-09T05:28:11;101758.56;;;14.81;100.00
77725;BME280;66892;53.236;6.550;2023-10-09T05:30:58;101757.66;;;14.81;100.00
77725;BME280;66892;53.236;6.550;2023-10-09T05:33:34;101758.53;;;14.84;100.00
77725;BME280;66892;53.236;6.550;2023-10-09T05:36:05;101770.06;;;14.85;100.00
77725;BME280;66892;53.236;6.550;2023-10-09T05:38:57;101772.75;;;14.86;100.00
77725;BME280;66892;53.236;6.550;2023-10-09T05:41:44;101770.94;;;14.88;100.00
77725;BME280;66892;53.236;6.550;2023-10-09T05:44:13;101775.38;;;14.91;100.00
77725;BME280;66892;53.236;6.550;2023-10-09T05:46:58;101782.47;;;14.92;100.00
77725;BME280;66892;53.236;6.550;2023-10-09T05:49:49;101773.63;;;14.90;100.00
77725;BME280;66892;53.236;6.550;2023-10-09T05:52:49;101786.00;;;14.91;100.00
77725;BME280;66892;53.236;6.550;2023-10-09T05:55:18;101786.00;;;14.94;100.00
77725;BME280;66892;53.236;6.550;2023-10-09T05:57:50;101782.44;;;14.95;100.00
77725;BME280;66892;53.236;6.550;2023-10-09T06:00:34;101784.25;;;14.91;100.00
77725;BME280;66892;53.236;6.550;2023-10-09T06:03:19;101777.97;;;14.97;100.00
77725;BME280;66892;53.236;6.550;2023-10-09T06:05:45;101776.19;;;15.00;100.00
77725;BME280;66892;53.236;6.550;2023-10-09T06:08:30;101766.44;;;14.99;100.00
77725;BME280;66892;53.236;6.550;2023-10-09T06:11:08;101761.13;;;14.99;100.00
77725;BME280;66892;53.236;6.550;2023-10-09T06:13:53;101767.31;;;14.97;100.00
77725;BME280;66892;53.236;6.550;2023-10-09T06:16:35;101765.53;;;15.00;100.00
77725;BME280;66892;53.236;6.550;2023-10-09T06:19:07;101758.41;;;15.04;100.00
77725;BME280;66892;53.236;6.550;2023-10-09T06:21:34;101768.19;;;15.05;100.00
77725;BME280;66892;53.236;6.550;2023-10-09T06:24:27;101761.03;;;15.11;100.00
77725;BME280;66892;53.236;6.550;2023-10-09T06:27:04;101752.16;;;15.11;100.00
77725;BME280;66892;53.236;6.550;2023-10-09T06:29:30;101750.38;;;15.10;100.00
77725;BME280;66892;53.236;6.550;2023-10-09T06:32:02;101758.34;;;15.10;100.00
77725;BME280;66892;53.236;6.550;2023-10-09T06:34:44;101753.06;;;15.08;100.00
77725;BME280;66892;53.236;6.550;2023-10-09T06:37:17;101771.72;;;15.08;100.00
77725;BME280;66892;53.236;6.550;2023-10-09T06:39:51;101785.03;;;15.08;100.00
77725;BME280;66892;53.236;6.550;2023-10-09T06:42:23;101782.34;;;15.10;100.00
77725;BME280;66892;53.236;6.550;2023-10-09T06:45:00;101781.44;;;15.11;100.00
77725;BME280;66892;53.236;6.550;2023-10-09T06:47:26;101776.97;;;15.16;100.00
77725;BME280;66892;53.236;6.550;2023-10-09T06:49:52;101784.09;;;15.15;100.00
77725;BME280;66892;53.236;6.550;2023-10-09T06:52:37;101772.53;;;15.18;100.00
77725;BME280;66892;53.236;6.550;2023-10-09T06:55:23;101776.06;;;15.20;100.00
77725;BME280;66892;53.236;6.550;2023-10-09T06:57:58;101777.84;;;15.16;100.00
77725;BME280;66892;53.236;6.550;2023-10-09T07:00:27;101768.97;;;15.16;100.00
77725;BME280;66892;53.236;6.550;2023-10-09T07:03:12;101770.75;;;15.18;100.00
77725;BME280;66892;53.236;6.550;2023-10-09T07:05:38;101772.53;;;15.16;100.00
77725;BME280;66892;53.236;6.550;2023-10-09T07:08:24;101767.19;;;15.16;100.00
77725;BME280;66892;53.236;6.550;2023-10-09T07:11:04;101766.34;;;15.14;100.00
77725;BME280;66892;53.236;6.550;2023-10-09T07:14:08;101769.84;;;15.21;100.00
77725;BME280;66892;53.236;6.550;2023-10-09T07:16:54;101771.63;;;15.20;100.00
77725;BME280;66892;53.236;6.550;2023-10-09T07:19:23;101767.16;;;15.19;100.00
77725;BME280;66892;53.236;6.550;2023-10-09T07:22:08;101773.38;;;15.23;100.00
77725;BME280;66892;53.236;6.550;2023-10-09T07:24:47;101782.19;;;15.29;100.00
77725;BME280;66892;53.236;6.550;2023-10-09T07:27:25;101774.19;;;15.32;100.00
77725;BME280;66892;53.236;6.550;2023-10-09T07:30:11;101778.56;;;15.38;100.00
77725;BME280;66892;53.236;6.550;2023-10-09T07:32:57;101780.38;;;15.38;100.00
77725;BME280;66892;53.236;6.550;2023-10-09T07:35:31;101788.31;;;15.44;100.00
77725;BME280;66892;53.236;6.550;2023-10-09T07:38:13;101788.31;;;15.42;100.00
77725;BME280;66892;53.236;6.550;2023-10-09T07:40:41;101788.31;;;15.42;100.00
77725;BME280;66892;53.236;6.550;2023-10-09T07:43:30;101797.19;;;15.43;100.00
77725;BME280;66892;53.236;6.550;2023-10-09T07:46:05;101802.53;;;15.41;100.00
77725;BME280;66892;53.236;6.550;2023-10-09T07:48:31;101807.84;;;15.41;100.00
77725;BME280;66892;53.236;6.550;2023-10-09T07:51:18;101821.19;;;15.41;100.00
77725;BME280;66892;53.236;6.550;2023-10-09T07:53:49;101814.97;;;15.44;100.00
77725;BME280;66892;53.236;6.550;2023-10-09T07:56:15;101821.19;;;15.44;100.00
77725;BME280;66892;53.236;6.550;2023-10-09T07:58:48;101809.59;;;15.45;100.00
77725;BME280;66892;53.236;6.550;2023-10-09T08:01:14;101805.16;;;15.46;100.00
77725;BME280;66892;53.236;6.550;2023-10-09T08:04:00;101808.72;;;15.48;100.00
77725;BME280;66892;53.236;6.550;2023-10-09T08:06:37;101813.16;;;15.53;100.00
77725;BME280;66892;53.236;6.550;2023-10-09T08:09:10;101825.59;;;15.53;100.00
77725;BME280;66892;53.236;6.550;2023-10-09T08:11:40;101822.94;;;15.50;100.00
77725;BME280;66892;53.236;6.550;2023-10-09T08:14:07;101829.16;;;15.47;100.00
77725;BME280;66892;53.236;6.550;2023-10-09T08:16:54;101822.06;;;15.51;100.00
77725;BME280;66892;53.236;6.550;2023-10-09T08:19:37;101829.16;;;15.53;100.00
77725;BME280;66892;53.236;6.550;2023-10-09T08:22:17;101835.41;;;15.51;100.00
77725;BME280;66892;53.236;6.550;2023-10-09T08:25:04;101840.66;;;15.58;100.00
77725;BME280;66892;53.236;6.550;2023-10-09T08:27:30;101838.03;;;15.54;100.00
77725;BME280;66892;53.236;6.550;2023-10-09T08:29:58;101837.16;;;15.53;100.00
77725;BME280;66892;53.236;6.550;2023-10-09T08:32:42;101831.81;;;15.53;100.00
77725;BME280;66892;53.236;6.550;2023-10-09T08:35:11;101825.53;;;15.60;100.00
77725;BME280;66892;53.236;6.550;2023-10-09T08:38:07;101833.47;;;15.65;100.00
77725;BME280;66892;53.236;6.550;2023-10-09T08:40:37;101830.81;;;15.65;100.00
77725;BME280;66892;53.236;6.550;2023-10-09T08:43:14;101830.78;;;15.68;100.00
77725;BME280;66892;53.236;6.550;2023-10-09T08:45:45;101839.69;;;15.70;100.00
77725;BME280;66892;53.236;6.550;2023-10-09T08:48:11;101835.22;;;15.72;100.00
77725;BME280;66892;53.236;6.550;2023-10-09T08:50:53;101836.88;;;15.83;100.00
77725;BME280;66892;53.236;6.550;2023-10-09T08:53:23;101835.97;;;15.83;100.00
77725;BME280;66892;53.236;6.550;2023-10-09T08:55:53;101835.06;;;15.87;100.00
77725;BME280;66892;53.236;6.550;2023-10-09T08:58:21;101836.81;;;15.90;100.00
77725;BME280;66892;53.236;6.550;2023-10-09T09:00:53;101839.44;;;15.94;100.00
77725;BME280;66892;53.236;6.550;2023-10-09T09:03:21;101829.59;;;15.99;100.00
77725;BME280;66892;53.236;6.550;2023-10-09T09:05:57;101835.75;;;16.06;100.00
77725;BME280;66892;53.236;6.550;2023-10-09T09:08:24;101837.50;;;16.10;100.00
77725;BME280;66892;53.236;6.550;2023-10-09T09:10:56;101840.19;;;16.11;100.00
77725;BME280;66892;53.236;6.550;2023-10-09T09:13:24;101853.47;;;16.13;100.00
77725;BME280;66892;53.236;6.550;2023-10-09T09:15:50;101849.13;;;16.04;100.00
77725;BME280;66892;53.236;6.550;2023-10-09T09:18:20;101850.91;;;16.04;100.00
77725;BME280;66892;53.236;6.550;2023-10-09T09:20:48;101858.03;;;16.05;100.00
77725;BME280;66892;53.236;6.550;2023-10-09T09:23:19;101846.38;;;16.13;100.00
77725;BME280;66892;53.236;6.550;2023-10-09T09:25:49;101853.44;;;16.16;100.00
77725;BME280;66892;53.236;6.550;2023-10-09T09:28:24;101851.72;;;16.13;100.00
77725;BME280;66892;53.236;6.550;2023-10-09T09:30:53;101851.66;;;16.16;100.00
77725;BME280;66892;53.236;6.550;2023-10-09T09:33:22;101855.19;;;16.18;100.00
77725;BME280;66892;53.236;6.550;2023-10-09T09:36:08;101854.34;;;16.18;100.00
77725;BME280;66892;53.236;6.550;2023-10-09T09:38:37;101843.59;;;16.24;100.00
77725;BME280;66892;53.236;6.550;2023-10-09T09:41:16;101847.13;;;16.26;100.00
77725;BME280;66892;53.236;6.550;2023-10-09T09:43:53;101850.66;;;16.31;100.00
77725;BME280;66892;53.236;6.550;2023-10-09T09:46:23;101852.34;;;16.35;100.00
77725;BME280;66892;53.236;6.550;2023-10-09T09:49:02;101862.09;;;16.41;100.00
77725;BME280;66892;53.236;6.550;2023-10-09T09:51:29;101870.97;;;16.43;100.00
77725;BME280;66892;53.236;6.550;2023-10-09T09:53:56;101869.19;;;16.42;100.00
77725;BME280;66892;53.236;6.550;2023-10-09T09:56:24;101878.97;;;16.41;100.00
77725;BME280;66892;53.236;6.550;2023-10-09T09:58:51;101878.97;;;16.43;100.00
77725;BME280;66892;53.236;6.550;2023-10-09T10:01:20;101880.75;;;16.42;100.00
77725;BME280;66892;53.236;6.550;2023-10-09T10:03:56;101875.47;;;16.41;100.00
77725;BME280;66892;53.236;6.550;2023-10-09T10:06:25;101887.06;;;16.37;100.00
77725;BME280;66892;53.236;6.550;2023-10-09T10:08:54;101885.28;;;16.37;100.00
77725;BME280;66892;53.236;6.550;2023-10-09T10:11:42;101879.91;;;16.40;100.00
77725;BME280;66892;53.236;6.550;2023-10-09T10:14:10;101877.28;;;16.37;100.00
77725;BME280;66892;53.236;6.550;2023-10-09T10:17:02;101867.47;;;16.34;100.00
77725;BME280;66892;53.236;6.550;2023-10-09T10:20:02;101880.88;;;16.31;100.00
77725;BME280;66892;53.236;6.550;2023-10-09T10:22:45;101880.91;;;16.28;100.00
77725;BME280;66892;53.236;6.550;2023-10-09T10:25:31;101878.16;;;16.34;100.00
77725;BME280;66892;53.236;6.550;2023-10-09T10:28:17;101876.34;;;16.40;100.00
77725;BME280;66892;53.236;6.550;2023-10-09T10:30:54;101876.28;;;16.44;100.00
77725;BME280;66892;53.236;6.550;2023-10-09T10:33:21;101884.22;;;16.52;100.00
77725;BME280;66892;53.236;6.550;2023-10-09T10:35:48;101883.31;;;16.53;100.00
77725;BME280;66892;53.236;6.550;2023-10-09T10:38:26;101882.41;;;16.57;100.00
77725;BME280;66892;53.236;6.550;2023-10-09T10:41:10;101891.34;;;16.56;100.00
77725;BME280;66892;53.236;6.550;2023-10-09T10:43:42;101893.13;;;16.52;100.00
77725;BME280;66892;53.236;6.550;2023-10-09T10:46:15;101894.91;;;16.53;100.00
77725;BME280;66892;53.236;6.550;2023-10-09T10:48:50;101899.41;;;16.47;100.00
77725;BME280;66892;53.236;6.550;2023-10-09T10:51:24;101909.25;;;16.43;100.00
77725;BME280;66892;53.236;6.550;2023-10-09T10:54:02;101916.31;;;16.46;100.00
77725;BME280;66892;53.236;6.550;2023-10-09T10:56:47;101915.50;;;16.41;100.00
77725;BME280;66892;53.236;6.550;2023-10-09T10:59:13;101911.94;;;16.40;100.00
77725;BME280;66892;53.236;6.550;2023-10-09T11:01:40;101922.66;;;16.35;100.00
77725;BME280;66892;53.236;6.550;2023-10-09T11:04:25;101927.13;;;16.32;100.00
77725;BME280;66892;53.236;6.550;2023-10-09T11:07:10;101931.69;;;16.24;100.00
77725;BME280;66892;53.236;6.550;2023-10-09T11:09:47;101929.94;;;16.17;100.00
77725;BME280;66892;53.236;6.550;2023-10-09T11:12:43;101934.44;;;16.15;100.00
77725;BME280;66892;53.236;6.550;2023-10-09T11:15:30;101929.09;;;16.15;100.00
77725;BME280;66892;53.236;6.550;2023-10-09T11:18:05;101930.91;;;16.11;100.00
77725;BME280;66892;53.236;6.550;2023-10-09T11:20:33;101934.41;;;16.18;100.00
77725;BME280;66892;53.236;6.550;2023-10-09T11:23:01;101931.63;;;16.30;100.00
77725;BME280;66892;53.236;6.550;2023-10-09T11:25:38;101933.38;;;16.34;100.00
77725;BME280;66892;53.236;6.550;2023-10-09T11:28:19;101926.19;;;16.39;100.00
77725;BME280;66892;53.236;6.550;2023-10-09T11:31:08;101914.47;;;16.52;100.00
77725;BME280;66892;53.236;6.550;2023-10-09T11:33:44;101921.25;;;16.85;100.00
77725;BME280;66892;53.236;6.550;2023-10-09T11:36:11;101929.22;;;16.90;100.00
77725;BME280;66892;53.236;6.550;2023-10-09T11:38:37;101916.88;;;16.76;100.00
77725;BME280;66892;53.236;6.550;2023-10-09T11:41:15;101914.34;;;16.67;100.00
77725;BME280;66892;53.236;6.550;2023-10-09T11:43:53;101917.09;;;16.58;100.00
77725;BME280;66892;53.236;6.550;2023-10-09T11:46:20;101925.13;;;16.57;100.00
77725;BME280;66892;53.236;6.550;2023-10-09T11:49:06;101925.13;;;16.58;100.00
77725;BME280;66892;53.236;6.550;2023-10-09T11:51:41;101929.59;;;16.56;100.00
77725;BME280;66892;53.236;6.550;2023-10-09T11:54:31;101917.03;;;16.64;100.00
77725;BME280;66892;53.236;6.550;2023-10-09T11:56:58;101918.81;;;16.65;100.00
77725;BME280;66892;53.236;6.550;2023-10-09T11:59:26;101919.81;;;16.55;100.00
77725;BME280;66892;53.236;6.550;2023-10-09T12:01:53;101921.66;;;16.46;100.00
77725;BME280;66892;53.236;6.550;2023-10-09T12:04:20;101915.47;;;16.44;100.00
77725;BME280;66892;53.236;6.550;2023-10-09T12:06:55;101919.09;;;16.37;100.00
77725;BME280;66892;53.236;6.550;2023-10-09T12:09:32;101910.19;;;16.34;100.00
77725;BME280;66892;53.236;6.550;2023-10-09T12:12:02;101919.03;;;16.43;100.00
77725;BME280;66892;53.236;6.550;2023-10-09T12:14:29;101911.06;;;16.38;100.00
77725;BME280;66892;53.236;6.550;2023-10-09T12:16:59;101912.00;;;16.34;100.00
77725;BME280;66892;53.236;6.550;2023-10-09T12:19:32;101902.16;;;16.38;100.00
77725;BME280;66892;53.236;6.550;2023-10-09T12:21:58;101906.56;;;16.42;100.00
77725;BME280;66892;53.236;6.550;2023-10-09T12:24:26;101910.13;;;16.44;100.00
77725;BME280;66892;53.236;6.550;2023-10-09T12:26:57;101903.81;;;16.49;100.00
77725;BME280;66892;53.236;6.550;2023-10-09T12:29:25;101894.00;;;16.53;100.00
77725;BME280;66892;53.236;6.550;2023-10-09T12:31:57;101897.59;;;16.47;100.00
77725;BME280;66892;53.236;6.550;2023-10-09T12:34:24;101900.22;;;16.55;100.00
77725;BME280;66892;53.236;6.550;2023-10-09T12:36:53;101907.25;;;16.63;100.00
77725;BME280;66892;53.236;6.550;2023-10-09T12:39:19;101900.00;;;16.76;100.00
77725;BME280;66892;53.236;6.550;2023-10-09T12:41:46;101890.19;;;16.78;100.00
77725;BME280;66892;53.236;6.550;2023-10-09T12:44:12;101889.31;;;16.73;100.00
77725;BME280;66892;53.236;6.550;2023-10-09T12:46:42;101894.63;;;16.77;100.00
77725;BME280;66892;53.236;6.550;2023-10-09T12:49:18;101899.00;;;16.84;100.00
77725;BME280;66892;53.236;6.550;2023-10-09T12:51:44;101896.34;;;16.84;100.00
77725;BME280;66892;53.236;6.550;2023-10-09T12:54:10;101888.19;;;16.92;100.00
77725;BME280;66892;53.236;6.550;2023-10-09T12:56:36;101900.66;;;16.95;100.00
77725;BME280;66892;53.236;6.550;2023-10-09T12:59:05;101905.03;;;16.99;100.00
77725;BME280;66892;53.236;6.550;2023-10-09T13:01:32;101904.22;;;16.95;100.00
77725;BME280;66892;53.236;6.550;2023-10-09T13:04:09;101899.81;;;16.90;100.00
77725;BME280;66892;53.236;6.550;2023-10-09T13:06:37;101890.94;;;16.88;100.00
77725;BME280;66892;53.236;6.550;2023-10-09T13:09:10;101895.44;;;16.84;100.00
77725;BME280;66892;53.236;6.550;2023-10-09T13:11:36;101906.09;;;16.89;100.00
77725;BME280;66892;53.236;6.550;2023-10-09T13:14:03;101897.22;;;16.83;100.00